createdAt,value
2018-07-16T00:00:06.124Z,89.50
2018-07-16T00:02:34.440Z,89.60
2018-07-16T00:05:02.808Z,89.80
2018-07-16T00:07:31.249Z,90.00
2018-07-16T00:09:59.524Z,90.00
2018-07-16T00:12:27.917Z,90.10
2018-07-16T00:17:24.158Z,90.10
2018-07-16T00:19:52.683Z,90.30
2018-07-16T00:22:20.969Z,90.20
2018-07-16T00:24:49.242Z,90.30
2018-07-16T00:27:17.581Z,90.40
2018-07-16T00:29:45.829Z,90.50
2018-07-16T00:32:14.117Z,90.50
2018-07-16T00:34:42.394Z,90.60
2018-07-16T00:37:10.831Z,90.90
2018-07-16T00:39:39.119Z,90.50
2018-07-16T00:42:07.410Z,90.70
2018-07-16T00:44:35.696Z,91.10
2018-07-16T00:47:03.973Z,90.80
2018-07-16T00:49:32.253Z,90.90
2018-07-16T00:52:00.514Z,90.90
2018-07-16T00:54:28.853Z,91.00
2018-07-16T00:56:57.136Z,91.00
2018-07-16T00:59:25.521Z,91.10
2018-07-16T01:01:53.909Z,91.10
2018-07-16T01:04:22.221Z,91.20
2018-07-16T01:06:50.545Z,91.20
2018-07-16T01:09:18.961Z,91.20
2018-07-16T01:11:47.236Z,91.20
2018-07-16T01:14:15.507Z,91.30
2018-07-16T01:16:43.793Z,91.30
2018-07-16T01:19:12.068Z,91.30
2018-07-16T01:21:40.425Z,91.30
2018-07-16T01:24:08.738Z,91.40
2018-07-16T01:26:37.002Z,91.50
2018-07-16T01:29:05.277Z,91.60
2018-07-16T01:31:33.554Z,91.70
2018-07-16T01:34:01.831Z,91.70
2018-07-16T01:36:30.316Z,91.70
2018-07-16T01:38:58.688Z,91.80
2018-07-16T01:41:27.062Z,91.90
2018-07-16T01:43:55.345Z,91.90
2018-07-16T01:46:23.622Z,92.00
2018-07-16T01:48:52.000Z,92.00
2018-07-16T01:51:20.293Z,92.00
2018-07-16T01:53:48.591Z,92.00
2018-07-16T01:56:16.917Z,92.00
2018-07-16T01:58:45.205Z,92.00
2018-07-16T02:01:13.484Z,92.00
2018-07-16T02:03:41.725Z,92.00
2018-07-16T02:06:09.969Z,92.40
2018-07-16T02:08:38.211Z,92.00
2018-07-16T02:11:06.492Z,92.10
2018-07-16T02:13:34.764Z,92.10
2018-07-16T02:16:03.041Z,92.40
2018-07-16T02:18:31.308Z,92.20
2018-07-16T02:20:59.660Z,92.20
2018-07-16T02:23:27.933Z,92.20
2018-07-16T02:25:56.225Z,92.30
2018-07-16T02:28:24.528Z,92.40
2018-07-16T02:30:52.798Z,92.40
2018-07-16T02:33:21.081Z,92.50
2018-07-16T02:35:49.349Z,92.60
2018-07-16T02:38:17.646Z,92.70
2018-07-16T02:40:46.017Z,92.70
2018-07-16T02:43:14.384Z,92.80
2018-07-16T02:45:42.690Z,93.10
2018-07-16T02:48:11.032Z,92.70
2018-07-16T02:50:39.399Z,92.80
2018-07-16T02:53:07.948Z,92.80
2018-07-16T02:55:36.276Z,92.80
2018-07-16T02:58:04.901Z,92.80
2018-07-16T03:00:33.239Z,92.80
2018-07-16T03:03:01.592Z,92.90
2018-07-16T03:05:29.934Z,92.90
2018-07-16T03:07:58.259Z,93.00
2018-07-16T03:10:26.591Z,93.00
2018-07-16T03:12:54.921Z,93.00
2018-07-16T03:15:23.220Z,93.00
2018-07-16T03:17:51.545Z,93.00
2018-07-16T03:20:19.876Z,93.00
2018-07-16T03:22:48.186Z,93.10
2018-07-16T03:25:16.536Z,93.10
2018-07-16T03:27:44.883Z,93.10
2018-07-16T03:30:13.221Z,93.10
2018-07-16T03:32:41.492Z,93.10
2018-07-16T03:35:09.905Z,93.20
2018-07-16T03:37:38.224Z,93.20
2018-07-16T03:42:35.155Z,93.30
2018-07-16T03:45:03.773Z,93.30
2018-07-16T03:47:32.157Z,93.40
2018-07-16T03:50:00.515Z,93.40
2018-07-16T03:52:28.889Z,93.40
2018-07-16T03:57:25.339Z,93.50
2018-07-16T03:59:53.820Z,93.40
2018-07-16T04:02:22.192Z,93.40
2018-07-16T04:04:50.519Z,93.40
2018-07-16T04:07:18.892Z,93.40
2018-07-16T04:09:47.276Z,93.40
2018-07-16T04:12:15.660Z,93.50
2018-07-16T04:14:44.009Z,93.50
2018-07-16T04:17:12.344Z,93.60
2018-07-16T04:19:40.668Z,93.70
2018-07-16T04:22:09.065Z,93.70
2018-07-16T04:24:37.430Z,93.70
2018-07-16T04:27:06.372Z,93.80
2018-07-16T04:29:34.674Z,93.90
2018-07-16T04:32:02.993Z,93.90
2018-07-16T04:34:31.416Z,93.90
2018-07-16T04:36:59.740Z,93.90
2018-07-16T04:39:28.191Z,94.00
2018-07-16T04:41:56.599Z,94.10
2018-07-16T04:44:25.090Z,94.10
2018-07-16T04:46:53.567Z,94.10
2018-07-16T04:49:22.116Z,94.10
2018-07-16T04:51:50.498Z,94.20
2018-07-16T04:54:18.840Z,94.20
2018-07-16T04:56:47.225Z,94.30
2018-07-16T04:59:15.576Z,94.40
2018-07-16T05:01:43.896Z,94.40
2018-07-16T05:04:12.238Z,94.80
2018-07-16T05:06:40.648Z,94.80
2018-07-16T05:09:08.990Z,94.50
2018-07-16T05:11:38.225Z,94.30
2018-07-16T05:14:06.542Z,94.60
2018-07-16T05:16:35.080Z,94.70
2018-07-16T05:19:03.382Z,94.60
2018-07-16T05:21:31.779Z,94.70
2018-07-16T05:24:00.150Z,94.80
2018-07-16T05:26:31.516Z,94.80
2018-07-16T05:28:59.836Z,94.90
2018-07-16T05:31:28.323Z,95.00
2018-07-16T05:33:56.645Z,95.00
2018-07-16T05:36:25.020Z,95.10
2018-07-16T05:38:53.324Z,95.20
2018-07-16T05:41:21.692Z,95.10
2018-07-16T05:43:50.017Z,95.10
2018-07-16T05:46:18.420Z,95.10
2018-07-16T05:48:46.845Z,95.10
2018-07-16T05:51:15.208Z,95.20
2018-07-16T05:53:43.540Z,95.20
2018-07-16T05:56:11.964Z,95.20
2018-07-16T05:58:40.291Z,95.20
2018-07-16T06:01:08.641Z,95.20
2018-07-16T06:03:36.927Z,95.30
2018-07-16T06:06:05.288Z,95.20
2018-07-16T06:08:33.641Z,95.20
2018-07-16T06:11:01.948Z,95.20
2018-07-16T06:13:30.303Z,95.20
2018-07-16T06:15:58.608Z,95.20
2018-07-16T06:18:26.924Z,95.20
2018-07-16T06:20:55.255Z,95.20
2018-07-16T06:23:23.740Z,95.10
2018-07-16T06:25:52.069Z,95.00
2018-07-16T06:28:20.484Z,94.80
2018-07-16T06:30:48.821Z,94.80
2018-07-16T06:33:17.172Z,94.70
2018-07-16T06:35:45.492Z,94.60
2018-07-16T06:38:13.788Z,94.50
2018-07-16T06:40:42.263Z,94.20
2018-07-16T06:43:10.439Z,94.10
2018-07-16T06:45:38.777Z,93.90
2018-07-16T06:50:35.298Z,93.40
2018-07-16T06:53:03.652Z,93.10
2018-07-16T06:55:31.997Z,92.80
2018-07-16T06:58:00.328Z,92.30
2018-07-16T07:00:28.735Z,91.70
2018-07-16T07:02:57.084Z,91.20
2018-07-16T07:05:25.532Z,91.00
2018-07-16T07:07:53.836Z,90.90
2018-07-16T07:10:22.582Z,90.40
2018-07-16T07:12:50.981Z,89.90
2018-07-16T07:15:19.290Z,88.60
2018-07-16T07:17:47.556Z,87.40
2018-07-16T07:20:15.924Z,86.00
2018-07-16T07:22:44.223Z,85.00
2018-07-16T07:25:12.525Z,84.70
2018-07-16T07:27:40.836Z,82.50
2018-07-16T07:30:09.136Z,81.60
2018-07-16T07:32:37.613Z,80.80
2018-07-16T07:35:06.113Z,80.30
2018-07-16T07:37:34.360Z,79.70
2018-07-16T07:40:02.705Z,79.00
2018-07-16T07:42:31.023Z,78.40
2018-07-16T07:44:59.326Z,78.30
2018-07-16T07:47:27.652Z,77.90
2018-07-16T07:49:56.005Z,77.60
2018-07-16T07:52:24.300Z,77.10
2018-07-16T07:57:20.689Z,75.80
2018-07-16T07:59:49.009Z,75.90
2018-07-16T08:02:17.346Z,75.50
2018-07-16T08:04:45.644Z,74.10
2018-07-16T08:07:14.432Z,73.70
2018-07-16T08:09:43.688Z,73.40
2018-07-16T08:12:12.912Z,72.60
2018-07-16T08:14:42.516Z,71.10
2018-07-16T08:17:11.318Z,69.80
2018-07-16T08:19:39.708Z,68.60
2018-07-16T08:22:08.402Z,67.50
2018-07-16T08:24:36.716Z,67.30
2018-07-16T08:27:05.173Z,66.50
2018-07-16T08:29:33.497Z,66.40
2018-07-16T08:32:02.026Z,65.60
2018-07-16T08:34:30.435Z,65.20
2018-07-16T08:36:58.864Z,64.60
2018-07-16T08:39:27.228Z,64.00
2018-07-16T08:41:55.558Z,64.20
2018-07-16T08:44:23.885Z,63.80
2018-07-16T08:46:52.244Z,62.90
2018-07-16T08:49:20.585Z,62.70
2018-07-16T08:51:48.884Z,61.70
2018-07-16T08:54:17.233Z,60.60
2018-07-16T08:56:45.553Z,58.80
2018-07-16T08:59:13.909Z,57.70
2018-07-16T09:01:42.198Z,56.10
2018-07-16T09:04:10.579Z,55.00
2018-07-16T09:06:38.885Z,53.80
2018-07-16T09:09:07.277Z,52.80
2018-07-16T09:11:35.651Z,51.60
2018-07-16T09:14:04.030Z,50.70
2018-07-16T09:16:32.433Z,49.80
2018-07-16T09:19:00.779Z,48.70
2018-07-16T09:23:57.151Z,47.80
2018-07-16T09:26:25.493Z,47.70
2018-07-16T09:31:23.289Z,46.10
2018-07-16T09:33:51.732Z,45.70
2018-07-16T09:36:20.080Z,44.60
2018-07-16T09:38:48.393Z,44.30
2018-07-16T09:41:16.733Z,44.20
2018-07-16T09:43:45.052Z,43.90
2018-07-16T09:46:13.392Z,43.30
2018-07-16T09:48:41.725Z,43.60
2018-07-16T09:51:10.358Z,43.50
2018-07-16T09:53:38.748Z,43.50
2018-07-16T09:56:07.153Z,42.60
2018-07-16T09:58:35.496Z,42.90
2018-07-16T10:01:09.162Z,43.10
2018-07-16T10:03:37.549Z,44.20
2018-07-16T10:06:05.913Z,44.10
2018-07-16T10:11:02.289Z,44.60
2018-07-16T10:13:30.609Z,45.10
2018-07-16T10:15:58.941Z,45.90
2018-07-16T10:18:27.221Z,46.10
2018-07-16T10:20:55.564Z,46.20
2018-07-16T10:23:23.858Z,45.80
2018-07-16T10:25:52.333Z,45.70
2018-07-16T10:28:20.581Z,45.50
2018-07-16T10:30:48.980Z,44.80
2018-07-16T10:33:17.293Z,44.60
2018-07-16T10:35:45.613Z,44.60
2018-07-16T10:38:13.984Z,45.20
2018-07-16T10:40:42.921Z,45.50
2018-07-16T10:43:11.276Z,44.90
2018-07-16T10:45:39.584Z,44.10
2018-07-16T10:48:07.931Z,44.30
2018-07-16T10:50:36.272Z,44.30
2018-07-16T10:53:04.673Z,44.30
2018-07-16T10:56:00.089Z,44.50
2018-07-16T10:58:28.433Z,44.00
2018-07-16T11:00:56.756Z,43.90
2018-07-16T11:03:25.057Z,44.50
2018-07-16T11:05:53.424Z,43.70
2018-07-16T11:08:21.745Z,43.10
2018-07-16T11:10:50.041Z,42.00
2018-07-16T11:13:18.367Z,42.00
2018-07-16T11:15:46.680Z,42.00
2018-07-16T11:18:15.008Z,41.40
2018-07-16T11:20:43.341Z,40.60
2018-07-16T11:25:39.712Z,38.60
2018-07-16T11:28:08.031Z,37.40
2018-07-16T11:30:36.325Z,36.30
2018-07-16T11:33:04.700Z,35.80
2018-07-16T11:35:33.156Z,35.60
2018-07-16T11:38:01.345Z,35.20
2018-07-16T11:40:29.692Z,33.80
2018-07-16T11:42:58.009Z,32.90
2018-07-16T11:45:26.360Z,32.20
2018-07-16T11:47:54.693Z,31.70
2018-07-16T11:50:23.081Z,31.40
2018-07-16T11:52:51.387Z,31.20
2018-07-16T11:55:19.688Z,31.20
2018-07-16T11:57:47.992Z,31.40
2018-07-16T12:00:16.324Z,31.10
2018-07-16T12:02:44.717Z,30.40
2018-07-16T12:05:13.508Z,30.30
2018-07-16T12:07:41.793Z,29.60
2018-07-16T12:10:10.153Z,28.70
2018-07-16T12:12:38.513Z,28.00
2018-07-16T12:15:06.829Z,28.00
2018-07-16T12:17:35.157Z,27.60
2018-07-16T12:20:03.542Z,27.50
2018-07-16T12:22:31.856Z,26.50
2018-07-16T12:25:00.198Z,26.80
2018-07-16T12:27:28.589Z,26.40
2018-07-16T12:29:56.903Z,25.70
2018-07-16T12:32:25.337Z,25.50
2018-07-16T12:34:53.651Z,25.60
2018-07-16T12:37:22.014Z,25.80
2018-07-16T12:39:50.372Z,25.30
2018-07-16T12:42:19.267Z,25.20
2018-07-16T12:44:47.608Z,24.90
2018-07-16T12:47:15.908Z,24.50
2018-07-16T12:49:44.236Z,24.00
2018-07-16T12:54:40.769Z,24.20
2018-07-16T12:57:09.175Z,23.50
2018-07-16T12:59:37.469Z,23.80
2018-07-16T13:02:05.788Z,23.50
2018-07-16T13:04:34.091Z,23.60
2018-07-16T13:07:02.401Z,24.00
2018-07-16T13:09:33.817Z,24.20
2018-07-16T13:12:02.088Z,24.10
2018-07-16T13:14:30.441Z,24.50
2018-07-16T13:16:58.753Z,24.20
2018-07-16T13:19:27.068Z,24.10
2018-07-16T13:21:55.558Z,24.20
2018-07-16T13:24:23.776Z,24.00
2018-07-16T13:26:52.073Z,23.50
2018-07-16T13:29:20.469Z,23.30
2018-07-16T13:31:48.784Z,23.20
2018-07-16T13:34:17.137Z,22.90
2018-07-16T13:36:45.460Z,23.40
2018-07-16T13:39:13.787Z,22.80
2018-07-16T13:41:42.124Z,23.20
2018-07-16T13:44:10.441Z,23.30
2018-07-16T13:46:38.757Z,23.20
2018-07-16T13:49:07.100Z,23.00
2018-07-16T13:51:35.436Z,22.70
2018-07-16T13:54:03.776Z,22.80
2018-07-16T13:56:32.155Z,22.60
2018-07-16T13:59:00.484Z,23.10
2018-07-16T14:01:28.812Z,23.30
2018-07-16T14:03:57.120Z,23.10
2018-07-16T14:06:25.460Z,23.40
2018-07-16T14:08:53.745Z,23.60
2018-07-16T14:11:22.177Z,23.30
2018-07-16T14:13:50.525Z,23.30
2018-07-16T14:16:18.880Z,23.30
2018-07-16T14:18:47.257Z,23.20
2018-07-16T14:21:15.639Z,24.00
2018-07-16T14:23:43.952Z,23.50
2018-07-16T14:26:12.296Z,23.70
2018-07-16T14:28:40.604Z,23.90
2018-07-16T14:31:09.143Z,23.80
2018-07-16T14:33:37.618Z,23.90
2018-07-16T14:36:05.937Z,23.90
2018-07-16T14:38:34.427Z,24.30
2018-07-16T14:41:02.704Z,24.20
2018-07-16T14:43:31.038Z,24.30
2018-07-16T14:45:59.413Z,24.70
2018-07-16T14:48:27.712Z,24.80
2018-07-16T14:50:56.193Z,24.70
2018-07-16T14:53:24.548Z,24.90
2018-07-16T14:55:52.880Z,25.20
2018-07-16T14:58:21.328Z,25.30
2018-07-16T15:00:49.683Z,25.60
2018-07-16T15:03:18.000Z,26.30
2018-07-16T15:05:46.344Z,26.60
2018-07-16T15:08:14.710Z,26.90
2018-07-16T15:10:43.024Z,27.60
2018-07-16T15:13:11.372Z,28.20
2018-07-16T15:15:39.688Z,29.10
2018-07-16T15:20:36.244Z,30.50
2018-07-16T15:23:04.436Z,31.00
2018-07-16T15:25:32.819Z,31.20
2018-07-16T15:28:01.619Z,32.30
2018-07-16T15:30:30.092Z,33.20
2018-07-16T15:32:58.476Z,33.80
2018-07-16T15:35:26.801Z,34.60
2018-07-16T15:37:55.382Z,35.10
2018-07-16T15:40:23.692Z,35.30
2018-07-16T15:45:20.100Z,35.70
2018-07-16T15:47:48.453Z,35.80
2018-07-16T15:50:16.812Z,36.50
2018-07-16T15:52:45.245Z,36.70
2018-07-16T15:55:13.577Z,37.20
2018-07-16T15:57:41.902Z,37.20
2018-07-16T16:00:12.469Z,37.30
2018-07-16T16:02:40.802Z,37.40
2018-07-16T16:05:09.206Z,37.70
2018-07-16T16:07:37.540Z,37.90
2018-07-16T16:10:05.853Z,38.30
2018-07-16T16:12:34.221Z,38.90
2018-07-16T16:15:02.603Z,39.00
2018-07-16T16:17:30.955Z,39.50
2018-07-16T16:19:59.364Z,39.70
2018-07-16T16:22:27.641Z,39.60
2018-07-16T16:24:55.900Z,40.30
2018-07-16T16:27:24.229Z,40.20
2018-07-16T16:29:52.577Z,40.30
2018-07-16T16:32:20.899Z,40.40
2018-07-16T16:34:49.260Z,40.80
2018-07-16T16:37:17.629Z,40.80
2018-07-16T16:42:14.044Z,40.60
2018-07-16T16:44:42.353Z,40.80
2018-07-16T16:47:10.796Z,41.20
2018-07-16T16:49:39.112Z,41.20
2018-07-16T16:52:07.478Z,41.40
2018-07-16T16:54:35.845Z,41.90
2018-07-16T16:57:04.237Z,42.80
2018-07-16T16:59:32.562Z,42.30
2018-07-16T17:02:01.008Z,42.70
2018-07-16T17:04:29.321Z,42.30
2018-07-16T17:06:57.801Z,42.30
2018-07-16T17:09:26.110Z,42.60
2018-07-16T17:11:54.482Z,43.00
2018-07-16T17:14:22.744Z,43.20
2018-07-16T17:16:51.068Z,43.60
2018-07-16T17:19:19.380Z,43.90
2018-07-16T17:21:47.687Z,44.00
2018-07-16T17:24:16.144Z,43.80
2018-07-16T17:26:44.456Z,44.20
2018-07-16T17:29:12.752Z,44.90
2018-07-16T17:31:41.120Z,45.60
2018-07-16T17:34:09.470Z,46.50
2018-07-16T17:36:37.813Z,46.60
2018-07-16T17:39:07.979Z,47.00
2018-07-16T17:41:36.280Z,47.10
2018-07-16T17:44:04.788Z,47.60
2018-07-16T17:46:33.090Z,48.00
2018-07-16T17:49:01.424Z,47.40
2018-07-16T17:51:29.776Z,47.90
2018-07-16T17:53:58.061Z,47.60
2018-07-16T17:56:26.406Z,47.00
2018-07-16T17:58:54.717Z,47.10
2018-07-16T18:01:23.084Z,48.30
2018-07-16T18:03:51.385Z,49.20
2018-07-16T18:06:19.709Z,49.40
2018-07-16T18:08:48.150Z,49.00
2018-07-16T18:11:16.504Z,50.00
2018-07-16T18:13:44.825Z,50.90
2018-07-16T18:16:13.280Z,51.90
2018-07-16T18:18:41.821Z,51.90
2018-07-16T18:21:10.201Z,51.60
2018-07-16T18:23:38.528Z,51.60
2018-07-16T18:26:06.875Z,53.00
2018-07-16T18:28:35.474Z,53.20
2018-07-16T18:31:03.824Z,53.00
2018-07-16T18:33:32.156Z,52.00
2018-07-16T18:36:00.533Z,51.60
2018-07-16T18:38:29.032Z,51.90
2018-07-16T18:40:57.409Z,53.00
2018-07-16T18:43:25.706Z,53.80
2018-07-16T18:45:54.401Z,54.40
2018-07-16T18:48:23.165Z,54.90
2018-07-16T18:50:51.505Z,55.00
2018-07-16T18:53:20.041Z,55.50
2018-07-16T18:55:48.377Z,55.30
2018-07-16T18:58:16.702Z,55.80
2018-07-16T19:00:45.105Z,55.60
2018-07-16T19:03:13.362Z,55.50
2018-07-16T19:05:41.601Z,56.00
2018-07-16T19:08:09.850Z,56.00
2018-07-16T19:13:06.297Z,56.60
2018-07-16T19:15:34.596Z,57.20
2018-07-16T19:18:02.861Z,57.40
2018-07-16T19:20:31.171Z,57.70
2018-07-16T19:22:59.346Z,58.00
2018-07-16T19:25:27.617Z,58.50
2018-07-16T19:27:55.892Z,59.10
2018-07-16T19:30:24.150Z,59.40
2018-07-16T19:32:52.432Z,59.40
2018-07-16T19:35:23.681Z,59.70
2018-07-16T19:37:52.852Z,59.90
2018-07-16T19:40:21.082Z,60.10
2018-07-16T19:42:49.527Z,60.80
2018-07-16T19:45:17.776Z,61.60
2018-07-16T19:47:46.105Z,61.80
2018-07-16T19:50:14.359Z,62.20
2018-07-16T19:52:42.595Z,62.70
2018-07-16T19:55:10.930Z,63.70
2018-07-16T19:57:39.146Z,63.60
2018-07-16T20:00:07.672Z,63.60
2018-07-16T20:02:36.007Z,63.60
2018-07-16T20:05:04.361Z,63.80
2018-07-16T20:07:32.625Z,64.50
2018-07-16T20:10:01.220Z,64.90
2018-07-16T20:12:33.061Z,65.40
2018-07-16T20:15:02.321Z,66.10
2018-07-16T20:17:30.825Z,66.20
2018-07-16T20:19:59.476Z,66.60
2018-07-16T20:22:28.187Z,67.20
2018-07-16T20:24:56.577Z,67.50
2018-07-16T20:27:24.852Z,68.20
2018-07-16T20:29:53.273Z,68.30
2018-07-16T20:32:21.580Z,68.20
2018-07-16T20:34:49.773Z,68.10
2018-07-16T20:37:18.109Z,68.40
2018-07-16T20:39:46.581Z,68.60
2018-07-16T20:42:14.872Z,68.90
2018-07-16T20:44:43.137Z,68.70
2018-07-16T20:47:11.384Z,68.50
2018-07-16T20:49:39.682Z,68.70
2018-07-16T20:52:08.223Z,69.20
2018-07-16T20:57:04.468Z,69.60
2018-07-16T20:59:32.825Z,69.70
2018-07-16T21:02:01.151Z,70.30
2018-07-16T21:04:29.678Z,70.80
2018-07-16T21:06:57.909Z,70.90
2018-07-16T21:09:26.157Z,71.10
2018-07-16T21:11:54.465Z,71.40
2018-07-16T21:14:22.721Z,71.60
2018-07-16T21:16:51.293Z,72.00
2018-07-16T21:19:19.546Z,72.20
2018-07-16T21:21:47.781Z,73.10
2018-07-16T21:24:16.041Z,72.50
2018-07-16T21:26:44.324Z,72.90
2018-07-16T21:29:12.624Z,73.20
2018-07-16T21:31:42.812Z,73.70
2018-07-16T21:34:11.121Z,74.30
2018-07-16T21:36:39.360Z,74.70
2018-07-16T21:39:07.862Z,75.10
2018-07-16T21:41:36.104Z,75.00
2018-07-16T21:44:04.447Z,75.20
2018-07-16T21:46:32.678Z,75.80
2018-07-16T21:49:00.965Z,76.10
2018-07-16T21:51:29.257Z,76.30
2018-07-16T21:53:57.520Z,76.60
2018-07-16T21:56:25.764Z,76.80
2018-07-16T21:58:54.020Z,77.30
2018-07-16T22:01:22.317Z,77.40
2018-07-16T22:03:50.625Z,77.40
2018-07-16T22:06:18.850Z,77.30
2018-07-16T22:08:47.151Z,77.40
2018-07-16T22:11:15.623Z,77.50
2018-07-16T22:13:43.840Z,78.00
2018-07-16T22:16:12.201Z,78.40
2018-07-16T22:18:40.449Z,78.60
2018-07-16T22:21:08.784Z,79.50
2018-07-16T22:23:37.024Z,78.90
2018-07-16T22:26:05.322Z,79.30
2018-07-16T22:28:33.585Z,79.40
2018-07-16T22:31:01.876Z,79.80
2018-07-16T22:33:30.109Z,79.90
2018-07-16T22:35:58.408Z,80.20
2018-07-16T22:38:26.661Z,80.60
2018-07-16T22:40:54.967Z,81.00
2018-07-16T22:43:23.217Z,81.10
2018-07-16T22:45:51.457Z,81.20
2018-07-16T22:48:19.722Z,81.40
2018-07-16T22:50:47.968Z,81.70
2018-07-16T22:53:16.230Z,81.90
2018-07-16T22:55:44.499Z,82.20
2018-07-16T22:58:12.729Z,82.30
2018-07-16T23:00:40.969Z,82.50
2018-07-16T23:03:09.316Z,82.50
2018-07-16T23:05:37.552Z,82.70
2018-07-16T23:08:05.864Z,82.70
2018-07-16T23:10:34.089Z,82.70
2018-07-16T23:13:02.331Z,82.70
2018-07-16T23:15:30.617Z,83.00
2018-07-16T23:17:58.856Z,83.20
2018-07-16T23:22:56.051Z,83.70
2018-07-16T23:25:24.365Z,84.50
2018-07-16T23:27:52.613Z,83.90
2018-07-16T23:30:20.916Z,84.00
2018-07-16T23:32:49.168Z,84.00
2018-07-16T23:35:18.137Z,84.20
2018-07-16T23:37:46.694Z,84.40
2018-07-16T23:40:14.932Z,84.50
2018-07-16T23:42:43.193Z,84.70
2018-07-16T23:45:11.458Z,84.80
2018-07-16T23:47:39.731Z,85.00
2018-07-16T23:50:08.085Z,85.10
2018-07-16T23:52:36.482Z,85.10
2018-07-16T23:55:04.769Z,85.20
2018-07-16T23:57:33.045Z,85.30
